ACA540 LFMN-EBCI
Flight info
| Callsign | ACA540 |
|---|---|
| Flight time | 1h 12m |
| Altitude | 34000 |
| Route | IRMAR DCT KINES DCT VANAS DCT MOBLO DCT UBIMA DCT GILIR DCT PENDU DCT IXILU DCT EPL/N0457F320 DCT ROUSY/N0456F310 M624 DIK/N0456F320 Y37 BATTY |
| Aircraft | B738/M-SDE2E3FGHIRWXY/LB1 |
Departure
| Time | 2026-05-07 23:09 |
|---|---|
| Airport | Nice-Côte d'Azur Airport (LFMN) |
Arrival
| Time | 2026-05-08 00:22 |
|---|---|
| Airport | Brussels South Charleroi Airport (EBCI) |
| Time | Latitude | Longitude | Altitude | Speed | Heading |
|---|---|---|---|---|---|
| 2026-05-07 22:59 | 43.64876 | 7.20528 | 25 ft | 0 kts | 45° |
| 2026-05-07 23:00 | 43.64836 | 7.20474 | 25 ft | 0 kts | 45° |
| 2026-05-07 23:00 | 43.64571 | 7.20110 | 18 ft | 0 kts | 45° |
| 2026-05-07 23:08 | 43.64588 | 7.20133 | 19 ft | 22 kts | 45° |
| 2026-05-07 23:08 | 43.64883 | 7.20527 | 25 ft | 95 kts | 43° |
| 2026-05-07 23:08 | 43.65513 | 7.21388 | 26 ft | 157 kts | 45° |
| 2026-05-07 23:09 | 43.66402 | 7.22600 | 310 ft | 186 kts | 40° |
| 2026-05-07 23:09 | 43.67398 | 7.23496 | 1448 ft | 170 kts | 18° |
| 2026-05-07 23:09 | 43.68624 | 7.23824 | 1972 ft | 192 kts | 0° |
| 2026-05-07 23:09 | 43.69994 | 7.23655 | 2586 ft | 202 kts | 341° |
| 2026-05-07 23:10 | 43.71318 | 7.22808 | 2788 ft | 220 kts | 332° |
| 2026-05-07 23:10 | 43.72742 | 7.21863 | 3065 ft | 231 kts | 334° |
| 2026-05-07 23:10 | 43.74242 | 7.20968 | 3488 ft | 237 kts | 336° |
| 2026-05-07 23:10 | 43.75813 | 7.20107 | 3737 ft | 252 kts | 338° |
| 2026-05-07 23:11 | 43.77499 | 7.19258 | 4222 ft | 263 kts | 339° |
| 2026-05-07 23:11 | 43.79232 | 7.18440 | 5036 ft | 263 kts | 340° |
| 2026-05-07 23:11 | 43.80987 | 7.17650 | 5849 ft | 263 kts | 341° |
| 2026-05-07 23:11 | 43.82749 | 7.16909 | 6505 ft | 268 kts | 342° |
| 2026-05-07 23:12 | 43.84534 | 7.16095 | 7070 ft | 272 kts | 333° |
| 2026-05-07 23:12 | 43.86179 | 7.14794 | 7657 ft | 273 kts | 325° |
| 2026-05-07 23:12 | 43.87756 | 7.13323 | 8293 ft | 274 kts | 324° |
| 2026-05-07 23:12 | 43.89343 | 7.11832 | 8937 ft | 277 kts | 323° |
| 2026-05-07 23:13 | 43.90930 | 7.10319 | 9761 ft | 276 kts | 323° |
| 2026-05-07 23:13 | 43.92530 | 7.08821 | 10275 ft | 282 kts | 324° |
| 2026-05-07 23:13 | 43.94215 | 7.07274 | 10501 ft | 299 kts | 324° |
| 2026-05-07 23:13 | 43.96014 | 7.05637 | 10629 ft | 319 kts | 324° |
| 2026-05-07 23:14 | 43.97920 | 7.03902 | 10829 ft | 337 kts | 324° |
| 2026-05-07 23:14 | 43.99931 | 7.02079 | 11068 ft | 352 kts | 324° |
| 2026-05-07 23:14 | 44.02011 | 7.00201 | 11592 ft | 357 kts | 324° |
| 2026-05-07 23:14 | 44.04095 | 6.98322 | 12325 ft | 359 kts | 324° |
| 2026-05-07 23:15 | 44.06205 | 6.96423 | 12820 ft | 363 kts | 324° |
| 2026-05-07 23:15 | 44.08327 | 6.94510 | 13324 ft | 366 kts | 324° |
| 2026-05-07 23:15 | 44.10468 | 6.92557 | 13969 ft | 369 kts | 324° |
| 2026-05-07 23:15 | 44.12624 | 6.90673 | 14504 ft | 374 kts | 330° |
| 2026-05-07 23:16 | 44.15025 | 6.89253 | 15041 ft | 378 kts | 339° |
| 2026-05-07 23:16 | 44.17608 | 6.88416 | 15515 ft | 386 kts | 349° |
| 2026-05-07 23:16 | 44.20289 | 6.87974 | 16013 ft | 390 kts | 351° |
| 2026-05-07 23:16 | 44.22996 | 6.87595 | 16535 ft | 393 kts | 352° |
| 2026-05-07 23:17 | 44.25730 | 6.87225 | 17029 ft | 396 kts | 352° |
| 2026-05-07 23:17 | 44.28486 | 6.86844 | 17506 ft | 399 kts | 351° |
| 2026-05-07 23:17 | 44.31259 | 6.86448 | 18047 ft | 402 kts | 351° |
| 2026-05-07 23:17 | 44.33143 | 6.86173 | 18379 ft | 404 kts | 351° |
| 2026-05-07 23:18 | 44.35954 | 6.85754 | 18791 ft | 408 kts | 351° |
| 2026-05-07 23:18 | 44.38787 | 6.85326 | 19248 ft | 411 kts | 351° |
| 2026-05-07 23:18 | 44.41574 | 6.84905 | 19669 ft | 413 kts | 351° |
| 2026-05-07 23:18 | 44.44406 | 6.84472 | 20076 ft | 416 kts | 351° |
| 2026-05-07 23:19 | 44.47293 | 6.84029 | 20513 ft | 419 kts | 351° |
| 2026-05-07 23:19 | 44.50203 | 6.83582 | 20941 ft | 422 kts | 351° |
| 2026-05-07 23:19 | 44.53128 | 6.83133 | 21372 ft | 425 kts | 350° |
| 2026-05-07 23:19 | 44.56078 | 6.82681 | 21794 ft | 427 kts | 350° |
| 2026-05-07 23:20 | 44.59045 | 6.82226 | 22203 ft | 431 kts | 350° |
| 2026-05-07 23:20 | 44.62031 | 6.81766 | 22575 ft | 433 kts | 350° |
| 2026-05-07 23:20 | 44.65039 | 6.81304 | 22960 ft | 436 kts | 350° |
| 2026-05-07 23:20 | 44.68059 | 6.80840 | 23365 ft | 438 kts | 350° |
| 2026-05-07 23:21 | 44.71098 | 6.80373 | 23735 ft | 441 kts | 350° |
| 2026-05-07 23:21 | 44.74154 | 6.79902 | 24005 ft | 443 kts | 350° |
| 2026-05-07 23:21 | 44.77225 | 6.79428 | 24317 ft | 445 kts | 350° |
| 2026-05-07 23:21 | 44.80317 | 6.78961 | 24417 ft | 448 kts | 351° |
| 2026-05-07 23:22 | 44.83428 | 6.78646 | 24795 ft | 449 kts | 353° |
| 2026-05-07 23:22 | 44.86556 | 6.78441 | 25116 ft | 450 kts | 354° |
| 2026-05-07 23:22 | 44.89695 | 6.78274 | 25396 ft | 453 kts | 354° |
| 2026-05-07 23:22 | 44.92854 | 6.78108 | 25635 ft | 455 kts | 354° |
| 2026-05-07 23:23 | 44.96026 | 6.77930 | 25898 ft | 457 kts | 354° |
| 2026-05-07 23:23 | 44.99205 | 6.77740 | 26170 ft | 458 kts | 353° |
| 2026-05-07 23:23 | 45.02389 | 6.77537 | 26488 ft | 458 kts | 353° |
| 2026-05-07 23:23 | 45.05584 | 6.77326 | 26717 ft | 461 kts | 353° |
| 2026-05-07 23:24 | 45.08800 | 6.77111 | 26945 ft | 464 kts | 353° |
| 2026-05-07 23:24 | 45.12020 | 6.76897 | 27218 ft | 465 kts | 353° |
| 2026-05-07 23:24 | 45.15247 | 6.76682 | 27478 ft | 467 kts | 353° |
| 2026-05-07 23:24 | 45.18507 | 6.76466 | 27746 ft | 468 kts | 353° |
| 2026-05-07 23:25 | 45.21763 | 6.76251 | 27971 ft | 470 kts | 352° |
| 2026-05-07 23:25 | 45.25049 | 6.76033 | 28150 ft | 473 kts | 352° |
| 2026-05-07 23:25 | 45.28339 | 6.75815 | 28373 ft | 474 kts | 352° |
| 2026-05-07 23:25 | 45.31634 | 6.75598 | 28746 ft | 473 kts | 352° |
| 2026-05-07 23:26 | 45.34917 | 6.75383 | 29099 ft | 472 kts | 352° |
| 2026-05-07 23:26 | 45.38193 | 6.75174 | 29353 ft | 472 kts | 352° |
| 2026-05-07 23:26 | 45.41481 | 6.74967 | 29650 ft | 473 kts | 352° |
| 2026-05-07 23:26 | 45.44723 | 6.74762 | 29984 ft | 472 kts | 352° |
| 2026-05-07 23:27 | 45.51255 | 6.74334 | 30591 ft | 469 kts | 352° |
| 2026-05-07 23:27 | 45.54522 | 6.74110 | 30792 ft | 470 kts | 352° |
| 2026-05-07 23:27 | 45.57783 | 6.73888 | 31028 ft | 469 kts | 352° |
| 2026-05-07 23:28 | 45.61038 | 6.73665 | 31285 ft | 468 kts | 352° |
| 2026-05-07 23:28 | 45.64286 | 6.73443 | 31552 ft | 466 kts | 352° |
| 2026-05-07 23:28 | 45.67526 | 6.73221 | 31814 ft | 465 kts | 353° |
| 2026-05-07 23:28 | 45.70756 | 6.72998 | 31971 ft | 465 kts | 352° |
| 2026-05-07 23:29 | 45.73985 | 6.72778 | 32195 ft | 465 kts | 353° |
| 2026-05-07 23:29 | 45.77211 | 6.72560 | 32483 ft | 464 kts | 353° |
| 2026-05-07 23:29 | 45.80430 | 6.72340 | 32769 ft | 462 kts | 353° |
| 2026-05-07 23:29 | 45.83637 | 6.72120 | 33057 ft | 460 kts | 353° |
| 2026-05-07 23:30 | 45.86829 | 6.71899 | 33289 ft | 459 kts | 353° |
| 2026-05-07 23:30 | 45.90020 | 6.71677 | 33462 ft | 460 kts | 353° |
| 2026-05-07 23:30 | 45.93219 | 6.71453 | 33648 ft | 460 kts | 353° |
| 2026-05-07 23:30 | 45.96412 | 6.71231 | 33902 ft | 459 kts | 353° |
| 2026-05-07 23:31 | 45.99595 | 6.71009 | 34046 ft | 459 kts | 353° |
| 2026-05-07 23:31 | 46.02793 | 6.70785 | 34030 ft | 460 kts | 353° |
| 2026-05-07 23:31 | 46.09175 | 6.70341 | 34038 ft | 457 kts | 353° |
| 2026-05-07 23:32 | 46.15384 | 6.68940 | 34030 ft | 447 kts | 338° |
| 2026-05-07 23:32 | 46.21217 | 6.66074 | 34022 ft | 444 kts | 336° |
| 2026-05-07 23:33 | 46.27029 | 6.63144 | 34046 ft | 443 kts | 337° |
| 2026-05-07 23:33 | 46.32892 | 6.60240 | 34038 ft | 445 kts | 337° |
| 2026-05-07 23:34 | 46.38766 | 6.57364 | 34042 ft | 446 kts | 337° |
| 2026-05-07 23:34 | 46.44662 | 6.54481 | 34042 ft | 448 kts | 338° |
| 2026-05-07 23:35 | 46.50568 | 6.51585 | 34036 ft | 449 kts | 337° |
| 2026-05-07 23:35 | 46.56500 | 6.48667 | 34049 ft | 450 kts | 337° |
| 2026-05-07 23:36 | 46.62444 | 6.45737 | 34050 ft | 451 kts | 337° |
| 2026-05-07 23:36 | 46.68394 | 6.42797 | 34049 ft | 452 kts | 338° |
| 2026-05-07 23:37 | 46.74358 | 6.39843 | 34053 ft | 452 kts | 338° |
| 2026-05-07 23:37 | 46.80313 | 6.36886 | 34057 ft | 452 kts | 337° |
| 2026-05-07 23:38 | 46.86269 | 6.33923 | 34061 ft | 452 kts | 337° |
| 2026-05-07 23:38 | 46.92204 | 6.30962 | 34055 ft | 450 kts | 337° |
| 2026-05-07 23:39 | 46.98127 | 6.28000 | 34056 ft | 449 kts | 337° |
| 2026-05-07 23:39 | 47.04031 | 6.25041 | 34052 ft | 448 kts | 337° |
| 2026-05-07 23:40 | 47.09771 | 6.21641 | 34056 ft | 443 kts | 330° |
| 2026-05-07 23:40 | 47.15263 | 6.17576 | 34067 ft | 441 kts | 329° |
| 2026-05-07 23:41 | 47.20752 | 6.13527 | 34056 ft | 441 kts | 330° |
| 2026-05-07 23:41 | 47.26267 | 6.09542 | 34051 ft | 442 kts | 330° |
| 2026-05-07 23:42 | 47.31795 | 6.05582 | 34042 ft | 443 kts | 333° |
| 2026-05-07 23:42 | 47.37800 | 6.03310 | 34045 ft | 452 kts | 352° |
| 2026-05-07 23:43 | 47.44116 | 6.03302 | 34051 ft | 455 kts | 358° |
| 2026-05-07 23:43 | 47.50414 | 6.03566 | 34049 ft | 456 kts | 358° |
| 2026-05-07 23:44 | 47.56755 | 6.03749 | 34066 ft | 456 kts | 357° |
| 2026-05-07 23:44 | 47.63105 | 6.03879 | 34053 ft | 457 kts | 357° |
| 2026-05-07 23:45 | 47.69463 | 6.04006 | 34059 ft | 457 kts | 357° |
| 2026-05-07 23:45 | 47.75821 | 6.04143 | 34053 ft | 457 kts | 357° |
| 2026-05-07 23:46 | 47.82185 | 6.04337 | 34055 ft | 457 kts | 357° |
| 2026-05-07 23:46 | 47.88538 | 6.04544 | 34059 ft | 456 kts | 357° |
| 2026-05-07 23:47 | 47.94889 | 6.04746 | 34062 ft | 456 kts | 357° |
| 2026-05-07 23:47 | 48.01225 | 6.04943 | 34063 ft | 456 kts | 357° |
| 2026-05-07 23:48 | 48.07561 | 6.05140 | 34066 ft | 455 kts | 357° |
| 2026-05-07 23:48 | 48.13885 | 6.05338 | 34062 ft | 455 kts | 357° |
| 2026-05-07 23:49 | 48.20168 | 6.05535 | 34072 ft | 454 kts | 357° |
| 2026-05-07 23:49 | 48.26480 | 6.05733 | 34071 ft | 453 kts | 357° |
| 2026-05-07 23:50 | 48.32783 | 6.05934 | 34069 ft | 453 kts | 357° |
| 2026-05-07 23:50 | 48.39087 | 6.06216 | 34081 ft | 453 kts | 358° |
| 2026-05-07 23:51 | 48.45394 | 6.06532 | 34073 ft | 453 kts | 358° |
| 2026-05-07 23:51 | 48.51689 | 6.06841 | 34076 ft | 453 kts | 358° |
| 2026-05-07 23:52 | 48.57985 | 6.07144 | 34078 ft | 452 kts | 358° |
| 2026-05-07 23:52 | 48.64280 | 6.07445 | 34076 ft | 453 kts | 358° |
| 2026-05-07 23:53 | 48.70535 | 6.07744 | 34073 ft | 453 kts | 358° |
| 2026-05-07 23:53 | 48.76832 | 6.08047 | 34079 ft | 453 kts | 358° |
| 2026-05-07 23:54 | 48.83126 | 6.08350 | 34072 ft | 453 kts | 358° |
| 2026-05-07 23:54 | 48.89427 | 6.08654 | 34075 ft | 453 kts | 358° |
| 2026-05-07 23:55 | 48.95721 | 6.08959 | 34072 ft | 453 kts | 358° |
| 2026-05-07 23:55 | 49.02021 | 6.09264 | 34086 ft | 452 kts | 358° |
| 2026-05-07 23:56 | 49.08313 | 6.09571 | 34084 ft | 452 kts | 358° |
| 2026-05-07 23:56 | 49.14605 | 6.09878 | 34074 ft | 452 kts | 358° |
| 2026-05-07 23:57 | 49.20897 | 6.10185 | 34071 ft | 452 kts | 358° |
| 2026-05-07 23:57 | 49.27182 | 6.10493 | 34072 ft | 452 kts | 358° |
| 2026-05-07 23:58 | 49.33469 | 6.10802 | 34075 ft | 452 kts | 358° |
| 2026-05-07 23:58 | 49.39751 | 6.11112 | 34074 ft | 452 kts | 359° |
| 2026-05-07 23:59 | 49.46040 | 6.11423 | 34076 ft | 452 kts | 359° |
| 2026-05-07 23:59 | 49.52287 | 6.11700 | 34083 ft | 452 kts | 358° |
| 2026-05-08 00:00 | 49.58571 | 6.11933 | 34074 ft | 452 kts | 358° |
| 2026-05-08 00:00 | 49.64867 | 6.12170 | 34075 ft | 452 kts | 358° |
| 2026-05-08 00:01 | 49.71158 | 6.12414 | 34081 ft | 452 kts | 358° |
| 2026-05-08 00:01 | 49.77448 | 6.12661 | 34080 ft | 452 kts | 358° |
| 2026-05-08 00:02 | 49.83743 | 6.12907 | 34082 ft | 453 kts | 358° |
| 2026-05-08 00:02 | 49.89937 | 6.11863 | 34092 ft | 446 kts | 344° |
| 2026-05-08 00:03 | 49.95975 | 6.09657 | 34089 ft | 445 kts | 343° |
| 2026-05-08 00:03 | 50.02002 | 6.07437 | 34089 ft | 446 kts | 343° |
| 2026-05-08 00:04 | 50.08047 | 6.05268 | 34098 ft | 446 kts | 344° |
| 2026-05-08 00:04 | 50.11079 | 6.04192 | 33961 ft | 449 kts | 344° |
| 2026-05-08 00:04 | 50.14130 | 6.03110 | 33658 ft | 450 kts | 344° |
| 2026-05-08 00:05 | 50.16144 | 6.02396 | 33486 ft | 447 kts | 344° |
| 2026-05-08 00:05 | 50.19176 | 6.01321 | 33213 ft | 446 kts | 344° |
| 2026-05-08 00:05 | 50.22200 | 6.00246 | 32950 ft | 447 kts | 344° |
| 2026-05-08 00:05 | 50.25232 | 5.99165 | 32687 ft | 447 kts | 344° |
| 2026-05-08 00:06 | 50.28266 | 5.98082 | 32428 ft | 448 kts | 344° |
| 2026-05-08 00:06 | 50.31308 | 5.96995 | 32175 ft | 449 kts | 344° |
| 2026-05-08 00:06 | 50.34352 | 5.95906 | 31918 ft | 449 kts | 344° |
| 2026-05-08 00:06 | 50.37397 | 5.94816 | 31661 ft | 449 kts | 345° |
| 2026-05-08 00:07 | 50.40437 | 5.93726 | 31403 ft | 448 kts | 345° |
| 2026-05-08 00:07 | 50.43469 | 5.92638 | 31154 ft | 446 kts | 345° |
| 2026-05-08 00:07 | 50.46485 | 5.91554 | 30905 ft | 443 kts | 345° |
| 2026-05-08 00:07 | 50.49484 | 5.90475 | 30648 ft | 441 kts | 345° |
| 2026-05-08 00:08 | 50.52465 | 5.89400 | 30401 ft | 438 kts | 345° |
| 2026-05-08 00:08 | 50.55421 | 5.88333 | 30156 ft | 435 kts | 345° |
| 2026-05-08 00:08 | 50.58280 | 5.86889 | 29820 ft | 428 kts | 329° |
| 2026-05-08 00:08 | 50.60662 | 5.84205 | 29538 ft | 417 kts | 313° |
| 2026-05-08 00:09 | 50.62415 | 5.80668 | 29111 ft | 407 kts | 296° |
| 2026-05-08 00:09 | 50.63447 | 5.76550 | 28455 ft | 404 kts | 282° |
| 2026-05-08 00:09 | 50.63763 | 5.72186 | 27799 ft | 402 kts | 267° |
| 2026-05-08 00:09 | 50.63471 | 5.67853 | 27022 ft | 397 kts | 261° |
| 2026-05-08 00:10 | 50.63045 | 5.63538 | 26049 ft | 400 kts | 261° |
| 2026-05-08 00:10 | 50.62590 | 5.59194 | 25067 ft | 403 kts | 261° |
| 2026-05-08 00:10 | 50.62140 | 5.54834 | 24106 ft | 405 kts | 261° |
| 2026-05-08 00:10 | 50.61702 | 5.50439 | 23090 ft | 407 kts | 261° |
| 2026-05-08 00:11 | 50.61281 | 5.46089 | 22025 ft | 407 kts | 261° |
| 2026-05-08 00:11 | 50.60860 | 5.41680 | 20981 ft | 407 kts | 261° |
| 2026-05-08 00:11 | 50.60386 | 5.37297 | 19963 ft | 406 kts | 255° |
| 2026-05-08 00:11 | 50.59252 | 5.33265 | 18976 ft | 406 kts | 236° |
| 2026-05-08 00:12 | 50.57336 | 5.29989 | 17991 ft | 409 kts | 218° |
| 2026-05-08 00:12 | 50.54968 | 5.27499 | 16947 ft | 410 kts | 212° |
| 2026-05-08 00:12 | 50.52499 | 5.25247 | 15926 ft | 411 kts | 210° |
| 2026-05-08 00:12 | 50.50007 | 5.23051 | 14943 ft | 411 kts | 210° |
| 2026-05-08 00:13 | 50.47520 | 5.20881 | 14625 ft | 394 kts | 210° |
| 2026-05-08 00:13 | 50.45214 | 5.18880 | 14389 ft | 376 kts | 210° |
| 2026-05-08 00:13 | 50.42924 | 5.16900 | 13616 ft | 376 kts | 210° |
| 2026-05-08 00:13 | 50.40639 | 5.14927 | 12832 ft | 374 kts | 209° |
| 2026-05-08 00:14 | 50.38368 | 5.12963 | 12059 ft | 372 kts | 210° |
| 2026-05-08 00:14 | 50.36302 | 5.10574 | 11275 ft | 370 kts | 227° |
| 2026-05-08 00:14 | 50.34900 | 5.07231 | 10539 ft | 368 kts | 248° |
| 2026-05-08 00:14 | 50.34344 | 5.03362 | 9811 ft | 366 kts | 268° |
| 2026-05-08 00:15 | 50.34696 | 4.99435 | 9016 ft | 366 kts | 288° |
| 2026-05-08 00:15 | 50.35906 | 4.95956 | 8232 ft | 365 kts | 309° |
| 2026-05-08 00:15 | 50.37754 | 4.93258 | 7500 ft | 363 kts | 321° |
| 2026-05-08 00:15 | 50.39776 | 4.90899 | 6798 ft | 360 kts | 324° |
| 2026-05-08 00:16 | 50.41795 | 4.88631 | 6256 ft | 352 kts | 324° |
| 2026-05-08 00:16 | 50.43764 | 4.86432 | 5740 ft | 344 kts | 324° |
| 2026-05-08 00:16 | 50.45708 | 4.84263 | 5213 ft | 339 kts | 324° |
| 2026-05-08 00:16 | 50.47603 | 4.82144 | 4896 ft | 328 kts | 324° |
| 2026-05-08 00:17 | 50.49427 | 4.80104 | 4672 ft | 316 kts | 324° |
| 2026-05-08 00:17 | 50.51187 | 4.78131 | 4451 ft | 304 kts | 323° |
| 2026-05-08 00:17 | 50.52583 | 4.75802 | 4259 ft | 284 kts | 295° |
| 2026-05-08 00:17 | 50.53009 | 4.72935 | 4057 ft | 261 kts | 268° |
| 2026-05-08 00:18 | 50.52839 | 4.70186 | 3753 ft | 247 kts | 257° |
| 2026-05-08 00:18 | 50.52401 | 4.67684 | 3485 ft | 229 kts | 250° |
| 2026-05-08 00:18 | 50.51843 | 4.65406 | 3163 ft | 216 kts | 244° |
| 2026-05-08 00:18 | 50.51235 | 4.63322 | 2856 ft | 204 kts | 243° |
| 2026-05-08 00:19 | 50.50664 | 4.61371 | 2658 ft | 189 kts | 244° |
| 2026-05-08 00:19 | 50.50130 | 4.59546 | 2355 ft | 176 kts | 242° |
| 2026-05-08 00:19 | 50.49632 | 4.57874 | 2119 ft | 160 kts | 245° |
| 2026-05-08 00:19 | 50.49196 | 4.56332 | 1904 ft | 150 kts | 244° |
| 2026-05-08 00:20 | 50.48770 | 4.54876 | 1714 ft | 147 kts | 244° |
| 2026-05-08 00:20 | 50.48348 | 4.53419 | 1504 ft | 146 kts | 244° |
| 2026-05-08 00:20 | 50.47933 | 4.51976 | 1332 ft | 145 kts | 244° |
| 2026-05-08 00:20 | 50.47506 | 4.50525 | 1100 ft | 145 kts | 245° |
| 2026-05-08 00:21 | 50.47092 | 4.49096 | 921 ft | 144 kts | 245° |
| 2026-05-08 00:21 | 50.46675 | 4.47657 | 728 ft | 146 kts | 245° |
| 2026-05-08 00:21 | 50.46259 | 4.46226 | 584 ft | 140 kts | 245° |
| 2026-05-08 00:21 | 50.45945 | 4.45153 | 597 ft | 58 kts | 244° |
| 2026-05-08 00:22 | 50.45888 | 4.44864 | 602 ft | 20 kts | 288° |
| 2026-05-08 00:22 | 50.46002 | 4.44788 | 601 ft | 20 kts | 25° |
| 2026-05-08 00:22 | 50.46075 | 4.44964 | 599 ft | 19 kts | 65° |
| 2026-05-08 00:22 | 50.46130 | 4.45150 | 597 ft | 19 kts | 66° |
| 2026-05-08 00:23 | 50.46178 | 4.45335 | 595 ft | 18 kts | 68° |
| 2026-05-08 00:23 | 50.46229 | 4.45510 | 593 ft | 17 kts | 65° |
| 2026-05-08 00:23 | 50.46279 | 4.45677 | 591 ft | 17 kts | 65° |
| 2026-05-08 00:23 | 50.46326 | 4.45840 | 589 ft | 16 kts | 66° |
| 2026-05-08 00:24 | 50.46371 | 4.45996 | 587 ft | 15 kts | 66° |
| 2026-05-08 00:24 | 50.46414 | 4.46147 | 585 ft | 15 kts | 66° |
| 2026-05-08 00:24 | 50.46457 | 4.46290 | 583 ft | 14 kts | 63° |
| 2026-05-08 00:24 | 50.46497 | 4.46427 | 582 ft | 14 kts | 66° |
| 2026-05-08 00:25 | 50.46535 | 4.46559 | 580 ft | 13 kts | 66° |
| 2026-05-08 00:25 | 50.46571 | 4.46686 | 579 ft | 13 kts | 66° |
| 2026-05-08 00:25 | 50.46617 | 4.46791 | 578 ft | 12 kts | 24° |
| 2026-05-08 00:25 | 50.46684 | 4.46838 | 583 ft | 11 kts | 51° |
| 2026-05-08 00:26 | 50.46718 | 4.46939 | 579 ft | 10 kts | 68° |
| 2026-05-08 00:26 | 50.46757 | 4.47026 | 577 ft | 10 kts | 17° |
| 2026-05-08 00:26 | 50.46820 | 4.47055 | 580 ft | 9 kts | 6° |
| 2026-05-08 00:26 | 50.46848 | 4.47045 | 580 ft | 0 kts | 333° |